Time;durP1;ratioP1;P1;durP2;ratioP2;P2;SDS_P1;SDS_P2;PMS_P1;PMS_P2;Temp;Humidity;BMP_temperature;BMP_pressure;BME280_temperature;BME280_humidity;BME280_pressure;Samples;Min_cycle;Max_cycle;Signal;HPM_P1;HPM_P2
2023/05/07 00:02:25;;;;;;;129.38;84.50;;;;;;;;;;5092270;28;20020;-68
2023/05/07 00:04:51;;;;;;;147.73;88.68;;;;;;;;;;5093926;28;20052;-68
2023/05/07 00:07:18;;;;;;;210.23;128.05;;;;;;;;;;5090273;28;20032;-68
2023/05/07 00:09:45;;;;;;;234.35;141.30;;;;;;;;;;5093547;28;20024;-68
2023/05/07 00:12:11;;;;;;;114.75;69.28;;;;;;;;;;5084690;28;20024;-67
2023/05/07 00:14:38;;;;;;;117.45;78.78;;;;;;;;;;5092493;28;20028;-67
2023/05/07 00:17:05;;;;;;;134.13;92.80;;;;;;;;;;5092721;28;20098;-68
2023/05/07 00:19:32;;;;;;;81.65;54.55;;;;;;;;;;5091605;28;20034;-68
2023/05/07 00:21:58;;;;;;;78.72;45.65;;;;;;;;;;5093531;28;20016;-68
2023/05/07 00:24:25;;;;;;;83.20;53.03;;;;;;;;;;5093073;28;20103;-68
2023/05/07 00:26:52;;;;;;;63.13;40.17;;;;;;;;;;5090350;28;20081;-68
2023/05/07 00:29:19;;;;;;;93.05;59.47;;;;;;;;;;5081045;28;20039;-68
2023/05/07 00:31:46;;;;;;;74.32;45.47;;;;;;;;;;5092954;28;20464;-69
2023/05/07 00:34:12;;;;;;;73.22;44.97;;;;;;;;;;5091378;28;20032;-70
2023/05/07 00:36:39;;;;;;;77.20;49.58;;;;;;;;;;5092203;28;20119;-67
2023/05/07 00:39:06;;;;;;;107.38;68.97;;;;;;;;;;5093095;28;20031;-68
2023/05/07 00:41:33;;;;;;;75.47;45.53;;;;;;;;;;5092530;28;20028;-68
2023/05/07 00:44:01;;;;;;;68.30;37.95;;;;;;;;;;5090236;28;20084;-68
2023/05/07 00:46:28;;;;;;;68.32;33.80;;;;;;;;;;5089857;28;20482;-68
2023/05/07 00:48:55;;;;;;;61.88;31.92;;;;;;;;;;5088124;28;20020;-68
2023/05/07 00:51:21;;;;;;;58.00;35.42;;;;;;;;;;5083296;28;20274;-68
2023/05/07 00:53:48;;;;;;;58.13;33.00;;;;;;;;;;5107951;28;20035;-67
2023/05/07 00:56:15;;;;;;;48.75;30.20;;;;;;;;;;5098918;28;20016;-68
2023/05/07 00:58:42;;;;;;;39.83;26.15;;;;;;;;;;5093624;28;20020;-68
2023/05/07 01:01:09;;;;;;;41.97;25.52;;;;;;;;;;5091987;28;20507;-68
2023/05/07 01:03:35;;;;;;;41.70;26.77;;;;;;;;;;5082326;28;20041;-68
2023/05/07 01:06:03;;;;;;;48.97;29.73;;;;;;;;;;5084036;28;20407;-67
2023/05/07 01:08:30;;;;;;;57.22;29.55;;;;;;;;;;5090747;28;20036;-68
2023/05/07 01:10:57;;;;;;;56.80;29.08;;;;;;;;;;5077716;28;20383;-66
2023/05/07 01:13:25;;;;;;;43.47;25.70;;;;;;;;;;5092593;28;20052;-68
2023/05/07 01:15:51;;;;;;;44.55;25.58;;;;;;;;;;5092474;28;20028;-68
2023/05/07 01:18:18;;;;;;;49.65;25.85;;;;;;;;;;5093017;28;20055;-67
2023/05/07 01:20:45;;;;;;;43.88;24.25;;;;;;;;;;5092897;28;20027;-67
2023/05/07 01:23:12;;;;;;;43.70;20.92;;;;;;;;;;5092874;28;20013;-66
2023/05/07 01:25:39;;;;;;;42.40;24.42;;;;;;;;;;5094487;28;20481;-66
2023/05/07 01:28:06;;;;;;;45.03;22.77;;;;;;;;;;5095690;28;20035;-67
2023/05/07 01:30:33;;;;;;;38.40;22.88;;;;;;;;;;5095762;28;20028;-65
2023/05/07 01:33:04;;;;;;;37.03;23.05;;;;;;;;;;5094591;28;20039;-65
2023/05/07 01:35:35;;;;;;;34.47;23.20;;;;;;;;;;5095197;28;20075;-65
2023/05/07 01:38:04;;;;;;;30.75;21.98;;;;;;;;;;5095445;28;20020;-65
2023/05/07 01:40:30;;;;;;;35.47;24.13;;;;;;;;;;5095282;28;20469;-66
2023/05/07 01:42:57;;;;;;;33.70;21.52;;;;;;;;;;5081088;28;20016;-65
2023/05/07 01:45:24;;;;;;;33.03;20.52;;;;;;;;;;5087061;28;20056;-64
2023/05/07 01:47:52;;;;;;;24.05;16.58;;;;;;;;;;5081627;28;20028;-65
2023/05/07 01:50:19;;;;;;;30.48;17.80;;;;;;;;;;5091904;28;20078;-64
2023/05/07 01:52:46;;;;;;;23.00;16.23;;;;;;;;;;5094343;28;20039;-66
2023/05/07 01:55:13;;;;;;;20.20;14.48;;;;;;;;;;5095597;28;20024;-65
2023/05/07 01:57:39;;;;;;;21.73;14.35;;;;;;;;;;5095114;28;20549;-66
2023/05/07 02:00:06;;;;;;;25.05;17.50;;;;;;;;;;5075913;28;20032;-66
2023/05/07 02:02:33;;;;;;;28.83;18.80;;;;;;;;;;5082178;28;20090;-66
2023/05/07 02:05:02;;;;;;;32.25;20.30;;;;;;;;;;5089986;28;20485;-66
2023/05/07 02:07:29;;;;;;;40.70;24.05;;;;;;;;;;5095982;28;20024;-65
2023/05/07 02:09:56;;;;;;;35.60;23.50;;;;;;;;;;5095783;28;20054;-66
2023/05/07 02:12:23;;;;;;;41.70;27.02;;;;;;;;;;5095891;28;20024;-64
2023/05/07 02:14:50;;;;;;;45.38;27.58;;;;;;;;;;5095668;28;20024;-65
2023/05/07 02:17:17;;;;;;;42.50;27.45;;;;;;;;;;5095824;28;20020;-65
2023/05/07 02:19:43;;;;;;;36.72;24.45;;;;;;;;;;5095410;28;20028;-64
2023/05/07 02:22:10;;;;;;;95.47;61.00;;;;;;;;;;5095633;28;20141;-65
2023/05/07 02:24:37;;;;;;;139.02;94.05;;;;;;;;;;5095745;28;20059;-66
2023/05/07 02:27:03;;;;;;;154.45;114.50;;;;;;;;;;5095430;28;20473;-69
2023/05/07 02:29:30;;;;;;;56.03;35.10;;;;;;;;;;5095431;28;20089;-67
2023/05/07 02:31:57;;;;;;;34.75;22.38;;;;;;;;;;5094872;28;20020;-67
2023/05/07 02:34:23;;;;;;;116.18;74.45;;;;;;;;;;5092344;28;20527;-67
2023/05/07 02:36:50;;;;;;;34.00;20.95;;;;;;;;;;5089297;28;20080;-67
2023/05/07 02:39:17;;;;;;;28.67;17.85;;;;;;;;;;5094196;28;20069;-67
2023/05/07 02:41:44;;;;;;;47.40;32.10;;;;;;;;;;5095382;28;20046;-68
2023/05/07 02:44:10;;;;;;;33.85;23.42;;;;;;;;;;5094944;28;20039;-67
2023/05/07 02:46:37;;;;;;;32.03;18.13;;;;;;;;;;5076494;28;20093;-68
2023/05/07 02:49:04;;;;;;;23.50;16.02;;;;;;;;;;5080854;28;20024;-67
2023/05/07 02:51:31;;;;;;;29.75;17.98;;;;;;;;;;5089664;28;20393;-66
2023/05/07 02:53:57;;;;;;;32.97;18.90;;;;;;;;;;5092638;28;20036;-66
2023/05/07 02:56:26;;;;;;;29.15;19.10;;;;;;;;;;5090362;28;20031;-67
2023/05/07 02:58:53;;;;;;;28.65;19.40;;;;;;;;;;5092969;28;20053;-68
2023/05/07 03:01:20;;;;;;;27.67;19.10;;;;;;;;;;5093886;28;20077;-67
2023/05/07 03:03:47;;;;;;;37.03;24.98;;;;;;;;;;5093792;28;20020;-67
2023/05/07 03:06:13;;;;;;;29.73;17.45;;;;;;;;;;5094020;28;20034;-67
2023/05/07 03:08:40;;;;;;;26.13;16.88;;;;;;;;;;5093971;28;20042;-68
2023/05/07 03:11:07;;;;;;;27.23;15.90;;;;;;;;;;5093320;28;20030;-68
2023/05/07 03:13:33;;;;;;;27.88;16.77;;;;;;;;;;5093404;28;20024;-67
2023/05/07 03:16:00;;;;;;;31.63;19.52;;;;;;;;;;5092916;28;20521;-67
2023/05/07 03:18:27;;;;;;;26.15;15.20;;;;;;;;;;5094549;28;20024;-67
2023/05/07 03:20:53;;;;;;;28.08;15.43;;;;;;;;;;5092548;28;20024;-67
2023/05/07 03:23:20;;;;;;;22.95;15.63;;;;;;;;;;5088580;28;20039;-67
2023/05/07 03:25:46;;;;;;;20.23;14.15;;;;;;;;;;5087230;28;20369;-67
2023/05/07 03:28:13;;;;;;;76.15;59.13;;;;;;;;;;5087670;28;20027;-68
2023/05/07 03:30:40;;;;;;;32.40;22.27;;;;;;;;;;5090634;28;20111;-67
2023/05/07 03:33:06;;;;;;;28.95;20.77;;;;;;;;;;5079200;28;20024;-68
2023/05/07 03:35:33;;;;;;;77.95;41.80;;;;;;;;;;5092683;28;20040;-67
2023/05/07 03:37:59;;;;;;;24.38;16.17;;;;;;;;;;5092771;28;20035;-68
2023/05/07 03:40:26;;;;;;;17.67;12.75;;;;;;;;;;5093177;28;20028;-68
2023/05/07 03:42:53;;;;;;;25.23;14.10;;;;;;;;;;5092689;28;20062;-66
2023/05/07 03:45:20;;;;;;;31.75;17.23;;;;;;;;;;5093210;28;20099;-65
2023/05/07 03:47:46;;;;;;;18.98;13.35;;;;;;;;;;5081989;28;20112;-72
2023/05/07 03:50:13;;;;;;;71.57;54.90;;;;;;;;;;5088954;28;20400;-68
2023/05/07 03:52:40;;;;;;;67.13;51.03;;;;;;;;;;5093614;28;20476;-66
2023/05/07 03:55:07;;;;;;;23.63;15.70;;;;;;;;;;5093838;28;20380;-67
2023/05/07 03:57:34;;;;;;;26.27;16.48;;;;;;;;;;5093790;28;20039;-67
2023/05/07 04:00:00;;;;;;;43.17;31.27;;;;;;;;;;5092702;28;20024;-65
2023/05/07 04:02:27;;;;;;;23.08;13.55;;;;;;;;;;5093424;28;20015;-68
2023/05/07 04:04:54;;;;;;;19.33;12.60;;;;;;;;;;5094021;28;20469;-68
2023/05/07 04:07:20;;;;;;;17.17;11.90;;;;;;;;;;5093542;28;20154;-70
2023/05/07 04:09:47;;;;;;;16.05;11.98;;;;;;;;;;5090529;28;20485;-68
2023/05/07 04:12:14;;;;;;;40.70;30.15;;;;;;;;;;5092994;28;20024;-69
2023/05/07 04:14:40;;;;;;;18.20;12.07;;;;;;;;;;5092289;28;20028;-69
2023/05/07 04:17:09;;;;;;;17.23;11.68;;;;;;;;;;5088836;28;20027;-68
2023/05/07 04:19:36;;;;;;;18.23;10.73;;;;;;;;;;5091995;28;20052;-70
2023/05/07 04:22:03;;;;;;;15.35;10.93;;;;;;;;;;5092782;28;20024;-65
2023/05/07 04:24:34;;;;;;;17.27;10.43;;;;;;;;;;5091155;28;20020;-68
2023/05/07 04:27:01;;;;;;;14.98;10.27;;;;;;;;;;5090290;28;20103;-67
2023/05/07 04:29:28;;;;;;;15.00;8.85;;;;;;;;;;5092916;28;20469;-66
2023/05/07 04:31:56;;;;;;;15.50;9.68;;;;;;;;;;5092920;28;20036;-67
2023/05/07 04:34:22;;;;;;;18.00;11.00;;;;;;;;;;5092765;28;20030;-67
2023/05/07 04:36:49;;;;;;;14.68;10.18;;;;;;;;;;5092538;28;20478;-68
2023/05/07 04:39:16;;;;;;;49.45;30.80;;;;;;;;;;5092854;28;20024;-68
2023/05/07 04:41:42;;;;;;;40.72;25.58;;;;;;;;;;5090369;28;20020;-68
2023/05/07 04:44:09;;;;;;;20.73;14.25;;;;;;;;;;5091529;28;20055;-69
2023/05/07 04:46:36;;;;;;;38.83;22.48;;;;;;;;;;5092588;28;20028;-67
2023/05/07 04:49:03;;;;;;;26.05;16.52;;;;;;;;;;5092803;28;20029;-67
2023/05/07 04:51:30;;;;;;;29.33;16.65;;;;;;;;;;5092583;28;20099;-68
2023/05/07 04:53:56;;;;;;;18.42;10.57;;;;;;;;;;5092732;28;20032;-68
2023/05/07 04:56:23;;;;;;;20.33;14.27;;;;;;;;;;5092843;28;20020;-67
2023/05/07 04:58:50;;;;;;;19.67;12.65;;;;;;;;;;5092459;28;20028;-69
2023/05/07 05:01:16;;;;;;;16.13;8.85;;;;;;;;;;5095722;28;20358;-69
2023/05/07 05:03:43;;;;;;;12.90;8.73;;;;;;;;;;5096840;28;20035;-69
2023/05/07 05:06:09;;;;;;;10.05;7.25;;;;;;;;;;5096054;28;20111;-67
2023/05/07 05:08:36;;;;;;;12.40;8.23;;;;;;;;;;5096567;28;20541;-68
2023/05/07 05:11:03;;;;;;;12.48;7.40;;;;;;;;;;5097792;28;20059;-69
2023/05/07 05:13:30;;;;;;;11.70;7.75;;;;;;;;;;5096872;28;20046;-69
2023/05/07 05:15:56;;;;;;;11.60;8.32;;;;;;;;;;5094930;28;20036;-73
2023/05/07 05:18:23;;;;;;;14.40;9.38;;;;;;;;;;5096356;28;20073;-73
2023/05/07 05:20:50;;;;;;;13.82;8.68;;;;;;;;;;5096478;28;20050;-74
2023/05/07 05:23:16;;;;;;;11.70;8.15;;;;;;;;;;5096505;28;20016;-74
2023/05/07 05:25:43;;;;;;;11.73;8.82;;;;;;;;;;5093033;28;20067;-71
2023/05/07 05:28:09;;;;;;;11.35;8.88;;;;;;;;;;5096433;28;20221;-71
2023/05/07 05:30:36;;;;;;;12.40;9.00;;;;;;;;;;5096192;28;20016;-72
2023/05/07 05:33:03;;;;;;;13.27;8.30;;;;;;;;;;5096325;28;20024;-72
2023/05/07 05:35:30;;;;;;;14.57;8.40;;;;;;;;;;5096018;28;20043;-72
2023/05/07 05:37:57;;;;;;;12.85;8.32;;;;;;;;;;5093491;28;20012;-72
2023/05/07 05:40:23;;;;;;;13.75;9.02;;;;;;;;;;5095417;28;20027;-72
2023/05/07 05:42:50;;;;;;;13.32;9.23;;;;;;;;;;5096045;28;20031;-72
2023/05/07 05:45:17;;;;;;;16.08;9.20;;;;;;;;;;5093065;28;20032;-71
2023/05/07 05:47:44;;;;;;;14.95;8.88;;;;;;;;;;5096023;28;20103;-72
2023/05/07 05:50:14;;;;;;;11.82;8.85;;;;;;;;;;5095812;28;20016;-72
2023/05/07 05:52:40;;;;;;;13.98;8.45;;;;;;;;;;5095543;28;20077;-71
2023/05/07 05:55:07;;;;;;;12.23;8.27;;;;;;;;;;5096327;28;20194;-69
2023/05/07 05:57:34;;;;;;;16.40;8.73;;;;;;;;;;5092599;28;20027;-76
2023/05/07 06:00:02;;;;;;;12.52;8.80;;;;;;;;;;5093121;28;20020;-72
2023/05/07 06:02:29;;;;;;;12.30;8.80;;;;;;;;;;5096023;28;20031;-71
2023/05/07 06:04:55;;;;;;;17.33;9.95;;;;;;;;;;5095722;28;20020;-72
2023/05/07 06:07:22;;;;;;;16.60;9.43;;;;;;;;;;5095508;28;20536;-72
2023/05/07 06:09:48;;;;;;;16.27;10.07;;;;;;;;;;5095130;28;20441;-71
2023/05/07 06:12:15;;;;;;;15.27;8.30;;;;;;;;;;5094696;28;20012;-72
2023/05/07 06:14:43;;;;;;;15.65;9.57;;;;;;;;;;5093970;28;20036;-76
2023/05/07 06:17:10;;;;;;;13.68;9.27;;;;;;;;;;5094696;28;20028;-73
2023/05/07 06:19:37;;;;;;;13.15;8.90;;;;;;;;;;5095286;28;20031;-72
2023/05/07 06:22:03;;;;;;;19.08;9.77;;;;;;;;;;5094717;28;20019;-72
2023/05/07 06:24:30;;;;;;;10.93;7.75;;;;;;;;;;5094718;28;20500;-73
2023/05/07 06:26:58;;;;;;;17.10;9.05;;;;;;;;;;5095049;28;20035;-75
2023/05/07 06:29:25;;;;;;;12.23;8.25;;;;;;;;;;5094916;28;20485;-72
2023/05/07 06:31:54;;;;;;;13.57;9.00;;;;;;;;;;5094376;28;20031;-72
2023/05/07 06:34:21;;;;;;;14.70;10.88;;;;;;;;;;5094498;28;20028;-72
2023/05/07 06:36:47;;;;;;;12.73;8.70;;;;;;;;;;5094232;28;20108;-70
2023/05/07 06:39:14;;;;;;;13.57;8.80;;;;;;;;;;5094010;28;20028;-72
2023/05/07 06:41:40;;;;;;;13.02;9.43;;;;;;;;;;5094166;28;20024;-73
2023/05/07 06:44:07;;;;;;;10.13;7.93;;;;;;;;;;5093984;28;20024;-73
2023/05/07 06:46:34;;;;;;;13.48;9.98;;;;;;;;;;5094434;28;20440;-73
2023/05/07 06:49:00;;;;;;;11.18;8.85;;;;;;;;;;5076183;28;20032;-73
2023/05/07 06:51:27;;;;;;;12.18;8.70;;;;;;;;;;5075973;28;20389;-72
2023/05/07 06:53:54;;;;;;;10.63;8.48;;;;;;;;;;5094155;28;20134;-71
2023/05/07 06:56:20;;;;;;;10.30;7.80;;;;;;;;;;5101870;28;20039;-73
2023/05/07 06:58:47;;;;;;;16.55;9.63;;;;;;;;;;5114581;28;20022;-71
2023/05/07 07:01:14;;;;;;;13.05;9.25;;;;;;;;;;5114520;28;20284;-72
2023/05/07 07:03:41;;;;;;;15.00;10.15;;;;;;;;;;5096295;28;20426;-73
2023/05/07 07:06:08;;;;;;;11.68;8.80;;;;;;;;;;5096128;28;20564;-72
2023/05/07 07:08:34;;;;;;;17.20;9.35;;;;;;;;;;5114401;28;20088;-74
2023/05/07 07:11:01;;;;;;;14.75;9.80;;;;;;;;;;5095265;28;20043;-75
2023/05/07 07:13:28;;;;;;;18.08;10.43;;;;;;;;;;5093931;28;20024;-72
2023/05/07 07:15:55;;;;;;;12.73;9.45;;;;;;;;;;5094157;28;20381;-73
2023/05/07 07:18:22;;;;;;;13.32;9.20;;;;;;;;;;5093830;28;20357;-74
2023/05/07 07:20:48;;;;;;;15.75;8.55;;;;;;;;;;5093726;28;20803;-73
2023/05/07 07:23:15;;;;;;;11.63;8.95;;;;;;;;;;5103104;28;20050;-72
2023/05/07 07:25:41;;;;;;;13.63;8.82;;;;;;;;;;5114215;28;20023;-73
2023/05/07 07:28:08;;;;;;;13.70;8.35;;;;;;;;;;5114000;28;20020;-72
2023/05/07 07:30:35;;;;;;;12.20;8.55;;;;;;;;;;5113811;28;20055;-74
2023/05/07 07:33:03;;;;;;;10.80;8.38;;;;;;;;;;5114386;28;20065;-72
2023/05/07 07:35:30;;;;;;;10.90;8.75;;;;;;;;;;5113899;28;20503;-70
2023/05/07 07:37:57;;;;;;;12.35;7.70;;;;;;;;;;5114069;28;20496;-72
2023/05/07 07:40:23;;;;;;;16.10;8.27;;;;;;;;;;5114218;28;20024;-71
2023/05/07 07:42:50;;;;;;;10.63;8.20;;;;;;;;;;5113998;28;20054;-71
2023/05/07 07:45:17;;;;;;;14.38;8.30;;;;;;;;;;5113698;28;20059;-72
2023/05/07 07:47:43;;;;;;;10.50;8.40;;;;;;;;;;5113815;28;20026;-72
2023/05/07 07:50:11;;;;;;;14.35;9.02;;;;;;;;;;5113862;28;20028;-71
2023/05/07 07:52:37;;;;;;;13.43;8.60;;;;;;;;;;5113548;28;20092;-71
2023/05/07 07:55:04;;;;;;;16.30;9.43;;;;;;;;;;5113787;28;20020;-72
2023/05/07 07:57:31;;;;;;;14.95;9.13;;;;;;;;;;5113838;28;20035;-74
2023/05/07 07:59:58;;;;;;;10.50;8.35;;;;;;;;;;5113868;28;20107;-77
2023/05/07 08:02:25;;;;;;;9.48;7.70;;;;;;;;;;5113858;28;20016;-76
2023/05/07 08:04:51;;;;;;;12.07;8.38;;;;;;;;;;5111105;28;20028;-74
2023/05/07 08:07:20;;;;;;;11.07;8.10;;;;;;;;;;5086278;28;20490;-74
2023/05/07 08:09:47;;;;;;;14.88;7.53;;;;;;;;;;5072914;28;20031;-71
2023/05/07 08:12:14;;;;;;;9.68;6.53;;;;;;;;;;5077984;28;20046;-72
2023/05/07 08:14:40;;;;;;;9.90;7.18;;;;;;;;;;5092728;28;20507;-70
2023/05/07 08:17:09;;;;;;;10.23;7.50;;;;;;;;;;5092889;28;20217;-70
2023/05/07 08:19:36;;;;;;;8.15;7.18;;;;;;;;;;5093161;28;20027;-70
2023/05/07 08:22:05;;;;;;;9.82;6.70;;;;;;;;;;5092657;28;20377;-71
2023/05/07 08:24:32;;;;;;;13.02;7.55;;;;;;;;;;5110461;28;20119;-71
2023/05/07 08:26:58;;;;;;;11.15;6.88;;;;;;;;;;5113053;28;20559;-71
2023/05/07 08:29:25;;;;;;;9.55;7.43;;;;;;;;;;5112977;28;20341;-71
2023/05/07 08:31:52;;;;;;;9.18;7.07;;;;;;;;;;5112926;28;20023;-71
2023/05/07 08:34:19;;;;;;;8.10;6.32;;;;;;;;;;5112328;28;20461;-69
2023/05/07 08:36:48;;;;;;;10.90;7.38;;;;;;;;;;5112271;28;20096;-67
2023/05/07 08:39:16;;;;;;;9.15;6.80;;;;;;;;;;5112731;28;20023;-69
2023/05/07 08:41:46;;;;;;;12.48;7.50;;;;;;;;;;5112736;28;20043;-70
2023/05/07 08:44:14;;;;;;;14.73;9.05;;;;;;;;;;5112937;28;20119;-72
2023/05/07 08:46:43;;;;;;;9.32;7.38;;;;;;;;;;5112804;28;20053;-71
2023/05/07 08:49:10;;;;;;;12.82;8.07;;;;;;;;;;5112845;28;20043;-69
2023/05/07 08:51:36;;;;;;;22.63;11.85;;;;;;;;;;5112697;28;20102;-70
2023/05/07 08:54:04;;;;;;;11.57;8.35;;;;;;;;;;5109151;28;20020;-69
2023/05/07 08:56:31;;;;;;;13.18;8.77;;;;;;;;;;5093170;28;20021;-69
2023/05/07 08:58:58;;;;;;;19.40;11.15;;;;;;;;;;5104292;28;20470;-68
2023/05/07 09:01:25;;;;;;;13.98;6.97;;;;;;;;;;5092942;28;20381;-69
2023/05/07 09:03:52;;;;;;;13.43;9.48;;;;;;;;;;5089125;28;20028;-68
2023/05/07 09:06:19;;;;;;;14.48;9.02;;;;;;;;;;5092480;28;20050;-66
2023/05/07 09:08:48;;;;;;;14.88;9.00;;;;;;;;;;5092562;28;20028;-70
2023/05/07 09:11:15;;;;;;;12.13;8.07;;;;;;;;;;5090825;28;20020;-68
2023/05/07 09:13:43;;;;;;;12.13;7.55;;;;;;;;;;5085432;28;20527;-71
2023/05/07 09:16:11;;;;;;;12.32;8.02;;;;;;;;;;5091708;28;20035;-72
2023/05/07 09:18:41;;;;;;;12.38;7.90;;;;;;;;;;5088537;28;20020;-70
2023/05/07 09:21:10;;;;;;;15.32;8.98;;;;;;;;;;5089813;28;20020;-73
2023/05/07 09:23:37;;;;;;;10.07;7.82;;;;;;;;;;5088562;28;20216;-72
2023/05/07 09:26:07;;;;;;;11.00;8.05;;;;;;;;;;5090183;28;20059;-71
2023/05/07 09:28:34;;;;;;;12.30;9.05;;;;;;;;;;5089094;28;20073;-72
2023/05/07 09:31:00;;;;;;;14.23;7.97;;;;;;;;;;5093136;28;20089;-73
2023/05/07 09:33:28;;;;;;;13.65;10.07;;;;;;;;;;5090699;28;20526;-72
2023/05/07 09:35:55;;;;;;;15.85;11.50;;;;;;;;;;5092661;28;20052;-72
2023/05/07 09:38:22;;;;;;;12.80;11.02;;;;;;;;;;5093168;28;20012;-70
2023/05/07 09:41:02;;;;;;;16.52;12.35;;;;;;;;;;5093035;28;20369;-73
2023/05/07 09:43:33;;;;;;;14.80;9.55;;;;;;;;;;5091768;28;20479;-74
2023/05/07 09:46:03;;;;;;;13.10;8.98;;;;;;;;;;5091289;28;20020;-70
2023/05/07 09:48:30;;;;;;;13.05;9.82;;;;;;;;;;5096165;28;20432;-72
2023/05/07 09:50:58;;;;;;;12.70;8.48;;;;;;;;;;5078081;28;20102;-73
2023/05/07 09:53:25;;;;;;;12.40;8.55;;;;;;;;;;5096289;28;20014;-69
2023/05/07 09:55:52;;;;;;;12.18;8.48;;;;;;;;;;5093907;28;20030;-71
2023/05/07 09:58:20;;;;;;;17.23;11.05;;;;;;;;;;5085166;28;20021;-67
2023/05/07 10:00:47;;;;;;;17.92;9.90;;;;;;;;;;5089909;28;20424;-68
2023/05/07 10:03:14;;;;;;;17.02;10.95;;;;;;;;;;5077722;28;20111;-70
2023/05/07 10:05:41;;;;;;;46.80;29.58;;;;;;;;;;5084490;28;20029;-71
2023/05/07 10:08:09;;;;;;;37.78;23.30;;;;;;;;;;5082315;28;20028;-72
2023/05/07 10:10:35;;;;;;;26.60;14.32;;;;;;;;;;5090374;28;20111;-70
2023/05/07 10:13:05;;;;;;;27.85;14.93;;;;;;;;;;5090375;28;20099;-71
2023/05/07 10:15:33;;;;;;;21.30;12.30;;;;;;;;;;5076218;28;20446;-71
2023/05/07 10:18:00;;;;;;;24.95;14.18;;;;;;;;;;5089077;28;20661;-71
2023/05/07 10:20:26;;;;;;;32.75;17.95;;;;;;;;;;5082229;28;20020;-72
2023/05/07 10:22:55;;;;;;;31.92;18.10;;;;;;;;;;5082004;28;20104;-72
2023/05/07 10:25:26;;;;;;;25.92;14.23;;;;;;;;;;5075551;28;20020;-72
2023/05/07 10:27:54;;;;;;;31.45;16.15;;;;;;;;;;5083563;28;20031;-71
2023/05/07 10:30:23;;;;;;;25.55;14.00;;;;;;;;;;5079142;28;20098;-72
2023/05/07 10:32:52;;;;;;;34.72;17.63;;;;;;;;;;5088524;28;20036;-72
2023/05/07 10:35:21;;;;;;;38.03;20.90;;;;;;;;;;5093916;28;20036;-72
2023/05/07 10:37:47;;;;;;;50.22;27.00;;;;;;;;;;5094023;28;20008;-71
2023/05/07 10:40:14;;;;;;;49.47;24.42;;;;;;;;;;5094541;28;20111;-73
2023/05/07 10:42:54;;;;;;;42.72;21.58;;;;;;;;;;5094483;28;20032;-72
2023/05/07 10:45:21;;;;;;;37.13;16.80;;;;;;;;;;5094258;28;20107;-72
2023/05/07 10:47:50;;;;;;;27.48;15.82;;;;;;;;;;5094291;28;20020;-72
2023/05/07 10:50:17;;;;;;;35.53;15.82;;;;;;;;;;5094380;28;20129;-74
2023/05/07 10:52:43;;;;;;;30.05;14.77;;;;;;;;;;5094203;28;20047;-74
2023/05/07 10:55:13;;;;;;;30.30;17.40;;;;;;;;;;5094194;28;20024;-71
2023/05/07 10:57:39;;;;;;;37.72;19.42;;;;;;;;;;5083142;28;20021;-72
2023/05/07 11:00:09;;;;;;;33.55;19.33;;;;;;;;;;5094985;28;20077;-71
2023/05/07 11:02:38;;;;;;;192.50;107.30;;;;;;;;;;5092380;28;20020;-70
2023/05/07 11:05:07;;;;;;;145.52;96.68;;;;;;;;;;5093936;28;20031;-71
2023/05/07 11:07:34;;;;;;;92.00;51.17;;;;;;;;;;5094252;28;20023;-72
2023/05/07 11:10:03;;;;;;;83.25;59.97;;;;;;;;;;5093589;28;20063;-71
2023/05/07 11:12:33;;;;;;;78.65;55.25;;;;;;;;;;5089815;28;20035;-73
2023/05/07 11:14:59;;;;;;;267.15;149.35;;;;;;;;;;5093114;28;20024;-73
2023/05/07 11:17:27;;;;;;;54.67;33.20;;;;;;;;;;5091933;28;20445;-71
2023/05/07 11:19:54;;;;;;;73.50;41.20;;;;;;;;;;5088181;28;20016;-72
2023/05/07 11:22:23;;;;;;;90.35;47.70;;;;;;;;;;5093133;28;20024;-73
2023/05/07 11:24:50;;;;;;;51.90;32.88;;;;;;;;;;5089956;28;20038;-72
2023/05/07 11:27:23;;;;;;;43.85;27.92;;;;;;;;;;5093678;28;20020;-73
2023/05/07 11:29:51;;;;;;;44.80;27.25;;;;;;;;;;5091516;28;20115;-74
2023/05/07 11:32:23;;;;;;;37.42;23.65;;;;;;;;;;5093768;28;20103;-72
2023/05/07 11:34:52;;;;;;;48.00;28.15;;;;;;;;;;5091491;28;20103;-72
2023/05/07 11:37:20;;;;;;;45.70;28.77;;;;;;;;;;5094212;28;20493;-74
2023/05/07 11:39:46;;;;;;;72.97;50.35;;;;;;;;;;5093046;28;20039;-73
2023/05/07 11:42:15;;;;;;;184.55;132.98;;;;;;;;;;5091911;28;20016;-73
2023/05/07 11:44:43;;;;;;;54.13;34.28;;;;;;;;;;5093237;28;20032;-71
2023/05/07 11:47:11;;;;;;;39.72;22.85;;;;;;;;;;5093724;28;20066;-73
2023/05/07 11:49:37;;;;;;;45.38;26.13;;;;;;;;;;5093425;28;20020;-72
2023/05/07 11:52:04;;;;;;;42.17;25.70;;;;;;;;;;5093174;28;20054;-73
2023/05/07 11:54:33;;;;;;;41.88;24.40;;;;;;;;;;5093270;28;20020;-72
2023/05/07 11:57:01;;;;;;;51.67;26.75;;;;;;;;;;5093559;28;20020;-71
2023/05/07 11:59:27;;;;;;;46.33;27.08;;;;;;;;;;5090097;28;20129;-73
2023/05/07 12:01:57;;;;;;;39.25;23.63;;;;;;;;;;5092130;28;20020;-72
2023/05/07 12:04:24;;;;;;;49.22;30.40;;;;;;;;;;5092173;28;20036;-74
2023/05/07 12:06:55;;;;;;;37.00;24.38;;;;;;;;;;5089908;28;20058;-71
2023/05/07 12:11:53;;;;;;;38.65;24.45;;;;;;;;;;5051152;28;20132;-73
2023/05/07 12:14:19;;;;;;;36.13;23.35;;;;;;;;;;5050688;28;20416;-72
2023/05/07 12:16:46;;;;;;;43.40;25.60;;;;;;;;;;5052185;28;20025;-72
2023/05/07 12:19:13;;;;;;;51.75;27.20;;;;;;;;;;5052881;28;20103;-70
2023/05/07 12:21:40;;;;;;;50.78;30.15;;;;;;;;;;5052694;28;20013;-70
2023/05/07 12:24:07;;;;;;;50.13;29.42;;;;;;;;;;5052617;28;20017;-73
2023/05/07 12:26:38;;;;;;;62.30;45.50;;;;;;;;;;5053007;28;20143;-67
2023/05/07 12:29:04;;;;;;;51.30;34.07;;;;;;;;;;5053364;28;20083;-67
2023/05/07 12:31:31;;;;;;;56.40;35.90;;;;;;;;;;5053299;28;20025;-73
2023/05/07 12:33:57;;;;;;;58.30;38.17;;;;;;;;;;5053602;28;20099;-67
2023/05/07 12:36:25;;;;;;;59.80;34.80;;;;;;;;;;5053096;28;20089;-68
2023/05/07 12:38:52;;;;;;;47.90;31.40;;;;;;;;;;5053298;28;20531;-68
2023/05/07 12:41:18;;;;;;;44.47;26.65;;;;;;;;;;5051486;28;20066;-67
2023/05/07 12:43:45;;;;;;;45.50;26.48;;;;;;;;;;5051926;28;20496;-72
2023/05/07 12:46:14;;;;;;;49.70;33.08;;;;;;;;;;5053208;28;20100;-68
2023/05/07 12:48:43;;;;;;;77.85;50.08;;;;;;;;;;5052452;28;20028;-65
2023/05/07 12:51:12;;;;;;;78.90;53.78;;;;;;;;;;5049940;28;20031;-67
2023/05/07 12:53:42;;;;;;;67.25;43.63;;;;;;;;;;5052213;28;20416;-68
2023/05/07 12:56:09;;;;;;;77.18;52.63;;;;;;;;;;5052377;28;20363;-66
2023/05/07 12:58:36;;;;;;;65.75;40.13;;;;;;;;;;5052210;28;20477;-69
2023/05/07 13:01:05;;;;;;;75.10;44.13;;;;;;;;;;5052367;28;20049;-65
2023/05/07 13:03:33;;;;;;;94.40;69.38;;;;;;;;;;5049660;28;20036;-65
2023/05/07 13:06:00;;;;;;;62.45;42.38;;;;;;;;;;5045757;28;20027;-68
2023/05/07 13:08:30;;;;;;;93.13;68.20;;;;;;;;;;5051878;28;20021;-68
2023/05/07 13:10:57;;;;;;;69.95;50.58;;;;;;;;;;5053300;28;20549;-66
2023/05/07 13:13:24;;;;;;;64.53;46.20;;;;;;;;;;5053015;28;20036;-67
2023/05/07 13:15:51;;;;;;;53.10;33.67;;;;;;;;;;5074945;22;20410;-67
2023/05/07 13:18:18;;;;;;;36.42;24.15;;;;;;;;;;5084290;28;20431;-68
2023/05/07 13:20:45;;;;;;;42.25;22.48;;;;;;;;;;5083518;28;20048;-68
2023/05/07 13:23:11;;;;;;;130.05;92.97;;;;;;;;;;5086532;28;20388;-68
2023/05/07 13:25:38;;;;;;;58.72;39.40;;;;;;;;;;5088149;28;20069;-68
2023/05/07 13:28:05;;;;;;;49.58;34.08;;;;;;;;;;5086580;28;20100;-68
2023/05/07 13:30:31;;;;;;;45.50;30.40;;;;;;;;;;5086294;28;20024;-68
2023/05/07 13:32:58;;;;;;;39.22;25.65;;;;;;;;;;5088085;28;20044;-67
2023/05/07 13:35:25;;;;;;;38.30;23.05;;;;;;;;;;5086305;28;20381;-68
2023/05/07 13:37:52;;;;;;;65.80;50.85;;;;;;;;;;5083327;28;20103;-68
2023/05/07 13:40:19;;;;;;;52.92;36.17;;;;;;;;;;5090147;28;20432;-66
2023/05/07 13:42:45;;;;;;;47.63;31.70;;;;;;;;;;5084330;28;20055;-68
2023/05/07 13:45:13;;;;;;;155.77;116.53;;;;;;;;;;5087134;28;20035;-68
2023/05/07 13:47:42;;;;;;;76.47;57.15;;;;;;;;;;5083127;28;20128;-67
2023/05/07 13:50:09;;;;;;;75.00;54.08;;;;;;;;;;5086360;28;20032;-67
2023/05/07 13:52:36;;;;;;;44.90;29.67;;;;;;;;;;5087152;28;20025;-68
2023/05/07 13:55:02;;;;;;;37.90;23.17;;;;;;;;;;5084802;28;20492;-68
2023/05/07 13:57:29;;;;;;;41.72;24.20;;;;;;;;;;5086927;28;20084;-69
2023/05/07 13:59:56;;;;;;;39.75;23.58;;;;;;;;;;5084301;28;20024;-67
2023/05/07 14:02:22;;;;;;;34.05;22.15;;;;;;;;;;5096336;28;20023;-71
2023/05/07 14:04:49;;;;;;;41.03;22.35;;;;;;;;;;5096716;28;20477;-68
2023/05/07 14:07:16;;;;;;;39.05;22.33;;;;;;;;;;5077280;28;20025;-66
2023/05/07 14:09:42;;;;;;;39.17;23.48;;;;;;;;;;5083587;28;20081;-66
2023/05/07 14:12:09;;;;;;;43.25;24.30;;;;;;;;;;5085385;28;20033;-66
2023/05/07 14:14:36;;;;;;;38.13;24.00;;;;;;;;;;5084473;28;20461;-67
2023/05/07 14:17:02;;;;;;;41.60;22.83;;;;;;;;;;5084372;28;20485;-65
2023/05/07 14:19:29;;;;;;;39.72;23.92;;;;;;;;;;5084127;28;20021;-67
2023/05/07 14:21:56;;;;;;;45.75;25.55;;;;;;;;;;5083851;28;20063;-67
2023/05/07 14:24:22;;;;;;;42.95;24.50;;;;;;;;;;5084613;28;20064;-67